Time;durP1;ratioP1;P1;durP2;ratioP2;P2;SDS_P1;SDS_P2;PMS_P1;PMS_P2;Temp;Humidity;BMP_temperature;BMP_pressure;BME280_temperature;BME280_humidity;BME280_pressure;Samples;Min_cycle;Max_cycle;Signal;HPM_P1;HPM_P2
2021/10/03 00:00:09;;;;;;;2.35;1.50;;;;;;;16.34;92.53;99732.34;6250227;28;20053;-81
2021/10/03 00:03:12;;;;;;;1.30;1.10;;;;;;;16.38;91.91;99734.56;6252001;28;20052;-81
2021/10/03 00:06:14;;;;;;;2.13;1.48;;;;;;;16.45;91.58;99737.47;6252233;28;20050;-79
2021/10/03 00:09:17;;;;;;;3.58;1.30;;;;;;;16.44;91.91;99733.13;6253855;28;20053;-80
2021/10/03 00:12:19;;;;;;;1.67;1.15;;;;;;;16.51;91.40;99736.06;6251078;28;20068;-80
2021/10/03 00:15:21;;;;;;;2.22;1.20;;;;;;;16.55;91.33;99725.03;6247488;28;20053;-78
2021/10/03 00:18:23;;;;;;;1.80;1.10;;;;;;;16.54;92.36;99717.22;6247729;28;20053;-78
2021/10/03 00:21:25;;;;;;;2.10;1.23;;;;;;;16.59;91.32;99718.44;6247828;28;20056;-79
2021/10/03 00:24:30;;;;;;;3.05;1.83;;;;;;;16.61;91.29;99715.63;6247920;28;20050;-78
2021/10/03 00:27:31;;;;;;;1.75;1.40;;;;;;;16.62;91.01;99722.59;6247750;28;20485;-78
2021/10/03 00:30:33;;;;;;;2.85;1.52;;;;;;;16.66;90.89;99719.50;6247916;28;20046;-77
2021/10/03 00:33:35;;;;;;;1.70;1.20;;;;;;;16.71;90.64;99711.13;6247025;28;20046;-78
2021/10/03 00:36:36;;;;;;;2.97;1.58;;;;;;;16.70;91.09;99718.25;6247635;28;20416;-78
2021/10/03 00:39:39;;;;;;;2.78;1.55;;;;;;;16.78;90.31;99716.72;6247495;28;20050;-78
2021/10/03 00:42:42;;;;;;;2.13;1.15;;;;;;;16.78;90.28;99722.03;6247680;28;20049;-78
2021/10/03 00:45:45;;;;;;;2.17;1.30;;;;;;;16.80;90.83;99717.41;6247645;28;20061;-78
2021/10/03 00:48:46;;;;;;;1.27;1.17;;;;;;;16.77;91.25;99715.88;6247236;28;20053;-78
2021/10/03 00:51:47;;;;;;;1.95;1.33;;;;;;;16.79;91.11;99702.47;6247800;28;20057;-78
2021/10/03 00:54:50;;;;;;;2.08;1.45;;;;;;;16.76;91.73;99703.63;6247070;28;20671;-78
2021/10/03 00:57:54;;;;;;;1.70;1.10;;;;;;;16.76;91.00;99702.75;6247413;28;20046;-78
2021/10/03 01:00:55;;;;;;;2.10;1.20;;;;;;;16.76;91.38;99700.97;6252317;28;20045;-78
2021/10/03 01:03:57;;;;;;;2.03;1.30;;;;;;;16.77;91.60;99709.75;6251540;28;20057;-78
2021/10/03 01:06:58;;;;;;;3.22;1.60;;;;;;;16.84;91.77;99706.34;6251985;28;20045;-77
2021/10/03 01:10:01;;;;;;;2.35;1.45;;;;;;;16.87;90.59;99694.59;6251422;28;20042;-77
2021/10/03 01:13:09;;;;;;;1.30;1.02;;;;;;;16.87;90.51;99706.06;6251413;28;20088;-78
2021/10/03 01:16:10;;;;;;;1.35;1.20;;;;;;;16.91;90.93;99707.44;6251588;28;20089;-78
2021/10/03 01:19:11;;;;;;;2.85;1.48;;;;;;;17.00;89.39;99692.44;6251391;28;20041;-78
2021/10/03 01:22:14;;;;;;;1.92;1.15;;;;;;;17.04;89.40;99688.50;6251730;28;20050;-78
2021/10/03 01:25:16;;;;;;;1.88;0.98;;;;;;;17.18;88.35;99700.44;6251154;28;20045;-79
2021/10/03 01:28:20;;;;;;;2.40;1.25;;;;;;;17.27;87.27;99690.75;6282334;28;20500;-78
2021/10/03 01:31:22;;;;;;;2.97;1.00;;;;;;;17.39;86.20;99689.50;6287161;28;20419;-79
2021/10/03 01:34:24;;;;;;;2.53;1.40;;;;;;;17.38;86.61;99677.22;6300230;28;20059;-78
2021/10/03 01:37:26;;;;;;;5.95;1.10;;;;;;;17.44;85.64;99666.84;6292199;28;20124;-78
2021/10/03 01:40:29;;;;;;;1.48;1.08;;;;;;;17.51;85.12;99677.69;6296016;28;20415;-78
2021/10/03 01:43:30;;;;;;;2.15;1.00;;;;;;;17.56;84.66;99674.56;6300624;28;20049;-78
2021/10/03 01:46:31;;;;;;;2.95;1.23;;;;;;;17.63;83.68;99676.47;6296281;28;20048;-77
2021/10/03 01:49:33;;;;;;;2.25;1.35;;;;;;;17.75;82.89;99675.25;6303307;22;20420;-80
2021/10/03 01:52:35;;;;;;;2.72;1.30;;;;;;;17.80;82.55;99663.31;6275608;28;20048;-80
2021/10/03 01:55:38;;;;;;;1.83;1.20;;;;;;;17.94;81.63;99662.75;6275566;28;20049;-78
2021/10/03 01:58:44;;;;;;;1.88;1.15;;;;;;;17.99;81.86;99656.00;6275174;28;20048;-79
2021/10/03 02:01:47;;;;;;;1.42;1.10;;;;;;;17.85;82.97;99659.22;6275462;28;20053;-81
2021/10/03 02:04:48;;;;;;;1.20;0.93;;;;;;;17.87;82.53;99649.25;6283305;28;20056;-81
2021/10/03 02:07:51;;;;;;;3.63;1.33;;;;;;;17.77;82.96;99659.16;6274883;28;20515;-79
2021/10/03 02:10:54;;;;;;;5.47;1.50;;;;;;;17.86;82.62;99652.09;6274609;28;20063;-80
2021/10/03 02:13:55;;;;;;;1.75;1.23;;;;;;;17.89;81.75;99651.75;6274441;28;20424;-81
2021/10/03 02:16:57;;;;;;;2.45;1.17;;;;;;;17.82;82.33;99650.72;6275069;28;20056;-80
2021/10/03 02:20:00;;;;;;;1.10;0.82;;;;;;;17.82;81.80;99640.09;6274225;28;20052;-80
2021/10/03 02:23:05;;;;;;;2.08;1.10;;;;;;;17.81;82.57;99641.09;6274677;28;20056;-81
2021/10/03 02:26:08;;;;;;;2.10;1.08;;;;;;;17.97;80.72;99639.34;6274638;28;20699;-80
2021/10/03 02:29:09;;;;;;;1.27;0.95;;;;;;;18.02;80.72;99646.03;6274719;28;20124;-80
2021/10/03 02:32:11;;;;;;;2.00;1.23;;;;;;;18.01;80.96;99647.84;6274760;28;20044;-80
2021/10/03 02:35:14;;;;;;;1.27;1.02;;;;;;;17.98;80.93;99641.00;6274860;28;20053;-81
2021/10/03 02:38:19;;;;;;;1.45;1.17;;;;;;;17.95;81.27;99644.00;6274120;28;20503;-80
2021/10/03 02:41:21;;;;;;;1.10;0.98;;;;;;;17.96;80.49;99640.34;6274458;28;20041;-79
2021/10/03 02:44:23;;;;;;;3.03;1.50;;;;;;;17.99;81.63;99637.41;6274042;28;20050;-79
2021/10/03 02:47:24;;;;;;;2.08;1.40;;;;;;;18.02;79.67;99646.84;6274312;28;20045;-80
2021/10/03 02:50:26;;;;;;;2.15;1.35;;;;;;;18.00;80.75;99640.88;6274193;28;20052;-80
2021/10/03 02:53:29;;;;;;;5.35;1.30;;;;;;;18.06;80.17;99639.41;6273900;28;20056;-81
2021/10/03 02:56:32;;;;;;;2.00;1.20;;;;;;;18.09;79.84;99650.56;6274603;28;20052;-80
2021/10/03 02:59:33;;;;;;;1.60;1.20;;;;;;;18.11;79.54;99645.09;6273702;28;20052;-80
2021/10/03 03:02:36;;;;;;;1.88;1.40;;;;;;;18.17;78.72;99642.66;6274783;28;20049;-80
2021/10/03 03:05:38;;;;;;;1.33;1.10;;;;;;;18.13;79.67;99656.41;6273797;28;20045;-81
2021/10/03 03:08:41;;;;;;;1.70;1.10;;;;;;;18.05;79.93;99653.69;6273869;28;20048;-81
2021/10/03 03:11:42;;;;;;;2.53;1.40;;;;;;;18.00;79.53;99648.84;6273529;28;20122;-80
2021/10/03 03:14:44;;;;;;;3.45;1.50;;;;;;;18.00;79.98;99649.69;6273469;28;20516;-80
2021/10/03 03:17:45;;;;;;;2.40;1.38;;;;;;;18.06;79.11;99650.03;6274089;28;20057;-80
2021/10/03 03:20:47;;;;;;;2.25;1.23;;;;;;;18.09;79.56;99658.56;6273791;28;20408;-81
2021/10/03 03:23:49;;;;;;;1.52;1.10;;;;;;;18.09;79.10;99650.56;6272717;28;20056;-81
2021/10/03 03:26:51;;;;;;;0.82;0.80;;;;;;;18.12;78.74;99650.28;6273266;28;20056;-80
2021/10/03 03:29:52;;;;;;;1.42;1.13;;;;;;;18.09;78.89;99649.75;6273342;28;20045;-80
2021/10/03 03:32:53;;;;;;;1.73;1.50;;;;;;;18.03;79.60;99650.34;6273587;28;20528;-80
2021/10/03 03:35:56;;;;;;;1.92;0.98;;;;;;;18.06;78.50;99636.75;6276191;28;20484;-80
2021/10/03 03:38:58;;;;;;;1.67;1.20;;;;;;;18.10;78.63;99638.94;6275579;28;20514;-79
2021/10/03 03:42:01;;;;;;;1.48;1.10;;;;;;;18.16;78.68;99645.44;6274614;28;20045;-80
2021/10/03 03:45:04;;;;;;;2.45;1.30;;;;;;;18.14;78.47;99637.63;6272574;28;20063;-81
2021/10/03 03:48:05;;;;;;;2.22;1.45;;;;;;;18.15;79.02;99649.94;6272888;28;20428;-81
2021/10/03 03:51:06;;;;;;;1.88;1.17;;;;;;;18.06;79.85;99650.88;6272558;28;20512;-80
2021/10/03 03:54:09;;;;;;;2.60;1.05;;;;;;;18.09;80.01;99655.91;6272589;28;20056;-81
2021/10/03 03:57:11;;;;;;;4.10;1.13;;;;;;;18.02;79.91;99654.84;6272972;28;20072;-79
2021/10/03 04:00:13;;;;;;;2.17;1.00;;;;;;;18.17;79.48;99647.13;6272943;28;20064;-81
2021/10/03 04:03:14;;;;;;;1.15;0.90;;;;;;;18.20;79.21;99642.31;6272995;28;20484;-80
2021/10/03 04:06:16;;;;;;;2.80;1.30;;;;;;;18.16;79.40;99651.59;6272335;28;20056;-80
2021/10/03 04:09:18;;;;;;;3.60;1.40;;;;;;;18.15;79.74;99651.75;6272886;28;20044;-80
2021/10/03 04:12:20;;;;;;;1.27;1.13;;;;;;;18.08;80.53;99648.09;6272653;28;20492;-81
2021/10/03 04:15:21;;;;;;;1.40;1.00;;;;;;;18.00;81.27;99646.19;6272592;28;20059;-80
2021/10/03 04:18:23;;;;;;;2.70;1.30;;;;;;;17.95;81.17;99651.97;6272482;28;20060;-80
2021/10/03 04:21:24;;;;;;;2.65;1.45;;;;;;;17.99;80.79;99648.03;6272917;28;20084;-82
2021/10/03 04:24:27;;;;;;;2.10;1.15;;;;;;;18.10;80.32;99659.38;6272538;28;20041;-81
2021/10/03 04:27:28;;;;;;;1.92;1.20;;;;;;;18.08;80.91;99659.56;6272666;28;20064;-82
2021/10/03 04:30:29;;;;;;;1.77;1.40;;;;;;;18.00;80.86;99662.97;6272078;28;20045;-81
2021/10/03 04:33:31;;;;;;;1.17;1.05;;;;;;;18.00;81.03;99659.50;6271818;28;20075;-81
2021/10/03 04:36:32;;;;;;;2.28;1.35;;;;;;;17.99;81.25;99656.00;6272402;28;20049;-81
2021/10/03 04:39:36;;;;;;;3.30;1.40;;;;;;;18.02;81.57;99656.66;6272196;28;20045;-80
2021/10/03 04:42:37;;;;;;;1.70;1.20;;;;;;;18.04;80.80;99650.22;6272380;28;20533;-81
2021/10/03 04:45:41;;;;;;;4.28;1.20;;;;;;;18.07;80.75;99659.69;6271932;28;20424;-80
2021/10/03 04:48:43;;;;;;;1.42;1.00;;;;;;;17.99;81.65;99649.84;6271918;28;20385;-79
2021/10/03 04:51:44;;;;;;;3.22;1.38;;;;;;;18.01;80.95;99653.19;6272736;28;20060;-81
2021/10/03 04:54:47;;;;;;;2.88;1.05;;;;;;;18.03;81.39;99650.34;6272459;28;20076;-81
2021/10/03 04:57:49;;;;;;;1.42;1.08;;;;;;;18.01;81.29;99645.19;6273389;28;20056;-81
2021/10/03 05:00:51;;;;;;;1.23;0.90;;;;;;;17.92;82.61;99649.63;6272783;28;20049;-81
2021/10/03 05:03:53;;;;;;;2.95;1.42;;;;;;;17.89;82.97;99649.09;6271932;28;20412;-80
2021/10/03 05:06:54;;;;;;;2.70;1.25;;;;;;;17.85;82.64;99645.94;6271928;28;20053;-80
2021/10/03 05:09:57;;;;;;;2.25;1.40;;;;;;;17.86;83.25;99650.25;6271584;28;20055;-80
2021/10/03 05:12:58;;;;;;;2.90;1.60;;;;;;;17.86;83.58;99652.91;6271521;28;20056;-80
2021/10/03 05:16:00;;;;;;;3.38;1.20;;;;;;;17.91;83.30;99655.09;6271260;28;20096;-80
2021/10/03 05:19:02;;;;;;;1.40;1.20;;;;;;;17.90;83.54;99650.78;6271389;28;20051;-79
2021/10/03 05:22:04;;;;;;;4.10;1.40;;;;;;;17.79;85.61;99656.34;6271645;28;20067;-80
2021/10/03 05:25:08;;;;;;;1.73;1.17;;;;;;;17.69;86.66;99653.75;6271155;28;20056;-79
2021/10/03 05:28:09;;;;;;;2.22;1.48;;;;;;;17.61;88.01;99649.19;6271337;28;20703;-81
2021/10/03 05:31:10;;;;;;;2.72;1.80;;;;;;;17.58;88.01;99654.00;6271949;28;20049;-80
2021/10/03 05:34:12;;;;;;;1.98;1.35;;;;;;;17.63;87.64;99651.72;6271856;28;20052;-80
2021/10/03 05:37:13;;;;;;;2.22;1.48;;;;;;;17.66;87.37;99648.72;6272486;28;20056;-80
2021/10/03 05:40:16;;;;;;;1.73;1.13;;;;;;;17.77;86.65;99655.69;6272024;28;20049;-81
2021/10/03 05:43:18;;;;;;;1.73;1.20;;;;;;;17.76;86.73;99652.19;6271561;28;20424;-80
2021/10/03 05:46:19;;;;;;;2.20;1.20;;;;;;;17.73;87.82;99650.66;6273791;28;20492;-80
2021/10/03 05:49:21;;;;;;;2.05;1.23;;;;;;;17.68;87.32;99652.91;6276223;28;20045;-80
2021/10/03 05:52:22;;;;;;;2.22;1.58;;;;;;;17.63;88.34;99651.72;6276080;28;20071;-79
2021/10/03 05:55:25;;;;;;;2.40;1.40;;;;;;;17.56;90.44;99648.81;6275645;28;20044;-80
2021/10/03 05:58:26;;;;;;;1.90;1.38;;;;;;;17.50;91.22;99655.59;6275468;28;20416;-79
2021/10/03 06:01:28;;;;;;;1.98;1.30;;;;;;;17.45;92.71;99646.41;6275762;28;20041;-80
2021/10/03 06:04:30;;;;;;;2.13;1.45;;;;;;;17.42;93.05;99646.72;6275398;28;20136;-81
2021/10/03 06:07:31;;;;;;;3.47;1.80;;;;;;;17.42;92.28;99646.72;6275448;28;20053;-80
2021/10/03 06:10:34;;;;;;;2.67;1.77;;;;;;;17.46;92.05;99650.75;6275191;28;20045;-81
2021/10/03 06:13:35;;;;;;;2.05;1.38;;;;;;;17.40;92.12;99654.84;6275202;28;20503;-82
2021/10/03 06:16:36;;;;;;;1.98;1.45;;;;;;;17.32;92.33;99646.81;6275252;28;20056;-80
2021/10/03 06:19:38;;;;;;;2.03;1.52;;;;;;;17.42;89.99;99657.34;6275137;28;20041;-79
2021/10/03 06:22:44;;;;;;;3.28;1.58;;;;;;;17.47;90.78;99655.88;6275611;28;20056;-80
2021/10/03 06:25:47;;;;;;;2.53;1.55;;;;;;;17.49;90.44;99653.09;6274828;28;20052;-80
2021/10/03 06:28:48;;;;;;;1.98;1.50;;;;;;;17.62;88.49;99663.31;6274547;28;20053;-80
2021/10/03 06:31:49;;;;;;;2.65;1.20;;;;;;;17.61;89.58;99661.66;6274577;28;20056;-80
2021/10/03 06:34:51;;;;;;;2.55;1.63;;;;;;;17.68;89.16;99671.53;6274694;28;20056;-79
2021/10/03 06:37:52;;;;;;;3.35;2.03;;;;;;;17.71;87.97;99670.34;6274426;28;20056;-81
2021/10/03 06:40:55;;;;;;;2.05;1.52;;;;;;;17.71;88.60;99662.38;6274966;28;20057;-81
2021/10/03 06:43:56;;;;;;;2.47;1.60;;;;;;;17.72;88.30;99667.56;6274353;28;20056;-79
2021/10/03 06:46:58;;;;;;;3.42;1.77;;;;;;;17.69;89.50;99665.22;6265765;28;20049;-79
2021/10/03 06:49:59;;;;;;;4.68;1.63;;;;;;;17.69;88.85;99667.88;6254390;28;20045;-80
2021/10/03 06:53:01;;;;;;;2.15;1.63;;;;;;;17.68;89.03;99665.38;6273797;28;20057;-79
2021/10/03 06:56:04;;;;;;;3.67;1.52;;;;;;;17.70;88.71;99680.16;6268945;28;20057;-80
2021/10/03 06:59:06;;;;;;;3.80;2.13;;;;;;;17.70;88.19;99672.19;6291320;28;20048;-81
2021/10/03 07:02:15;;;;;;;2.20;1.73;;;;;;;17.66;89.86;99684.09;6275998;28;20052;-79
2021/10/03 07:05:17;;;;;;;4.57;1.98;;;;;;;17.69;90.33;99681.16;6262029;28;20068;-80
2021/10/03 07:08:18;;;;;;;2.47;1.60;;;;;;;17.71;90.02;99678.31;6270787;28;20052;-80
2021/10/03 07:11:21;;;;;;;3.22;1.98;;;;;;;17.63;90.55;99673.81;6268218;28;20385;-79
2021/10/03 07:14:22;;;;;;;3.97;1.67;;;;;;;17.65;90.61;99678.94;6279107;28;20059;-80
2021/10/03 07:17:24;;;;;;;3.72;1.60;;;;;;;17.60;91.06;99683.91;6273111;28;20048;-81
2021/10/03 07:20:26;;;;;;;2.75;1.88;;;;;;;17.57;91.96;99681.53;6269366;28;20416;-80
2021/10/03 07:23:29;;;;;;;3.30;1.92;;;;;;;17.59;93.25;99682.22;6264235;28;20514;-80
2021/10/03 07:26:32;;;;;;;2.38;1.67;;;;;;;17.60;93.69;99674.09;6280415;28;20507;-80
2021/10/03 07:29:33;;;;;;;2.20;1.75;;;;;;;17.61;93.62;99680.25;6286530;28;20048;-79
2021/10/03 07:32:35;;;;;;;2.65;2.03;;;;;;;17.59;93.70;99688.38;6286171;28;20048;-80
2021/10/03 07:35:36;;;;;;;2.63;1.80;;;;;;;17.54;93.69;99681.88;6273105;28;20049;-81
2021/10/03 07:38:38;;;;;;;1.85;1.45;;;;;;;17.53;93.44;99685.47;6280996;28;20049;-80
2021/10/03 07:41:41;;;;;;;2.40;1.55;;;;;;;17.53;95.36;99686.31;6295593;28;20048;-81
2021/10/03 07:44:42;;;;;;;2.03;1.50;;;;;;;17.53;96.26;99680.16;6297450;28;20514;-81
2021/10/03 07:47:44;;;;;;;3.88;2.05;;;;;;;17.54;94.15;99689.84;6297748;28;20071;-80
2021/10/03 07:50:46;;;;;;;3.20;1.70;;;;;;;17.59;95.45;99687.56;6288657;22;20044;-80
2021/10/03 07:53:47;;;;;;;4.65;1.80;;;;;;;17.62;93.69;99693.41;6255749;28;20045;-80
2021/10/03 07:56:51;;;;;;;3.97;1.63;;;;;;;17.74;91.81;99686.03;6248877;28;20054;-80
2021/10/03 07:59:52;;;;;;;2.00;1.40;;;;;;;17.84;92.83;99680.63;6251842;28;20037;-80
2021/10/03 08:02:54;;;;;;;3.25;1.65;;;;;;;17.79;91.48;99694.38;6254556;28;20049;-78
2021/10/03 08:05:55;;;;;;;2.75;1.80;;;;;;;17.83;92.59;99686.94;6264229;28;20052;-79
2021/10/03 08:08:56;;;;;;;2.17;1.40;;;;;;;17.83;92.14;99694.91;6269916;28;20056;-79
2021/10/03 08:11:59;;;;;;;2.75;1.75;;;;;;;17.81;93.19;99702.22;6264835;28;20059;-80
2021/10/03 08:15:00;;;;;;;2.70;1.60;;;;;;;17.72;94.62;99702.13;6272337;28;20056;-79
2021/10/03 08:18:04;;;;;;;3.72;1.65;;;;;;;17.68;95.13;99700.75;6263893;28;20056;-80
2021/10/03 08:21:05;;;;;;;5.20;2.20;;;;;;;17.59;96.57;99687.56;6263374;28;20115;-79
2021/10/03 08:24:07;;;;;;;2.10;1.33;;;;;;;17.59;94.95;99687.56;6263943;28;20052;-79
2021/10/03 08:27:09;;;;;;;4.07;1.65;;;;;;;17.62;95.09;99696.06;6273177;28;20056;-80
2021/10/03 08:30:13;;;;;;;7.22;3.63;;;;;;;17.61;95.96;99701.50;6265895;28;20046;-79
2021/10/03 08:33:14;;;;;;;1.77;1.33;;;;;;;17.58;94.10;99700.00;6253450;28;20049;-79
2021/10/03 08:36:15;;;;;;;2.47;1.90;;;;;;;17.68;94.26;99700.75;6234116;28;20050;-79
2021/10/03 08:39:17;;;;;;;2.75;1.63;;;;;;;17.63;93.07;99702.19;6234661;28;20062;-80
2021/10/03 08:42:19;;;;;;;2.85;2.08;;;;;;;17.61;94.11;99693.53;6231047;28;20409;-79
2021/10/03 08:45:21;;;;;;;2.30;1.77;;;;;;;17.56;95.35;99691.34;6250246;28;20049;-80
2021/10/03 08:48:23;;;;;;;2.08;1.42;;;;;;;17.58;95.05;99689.38;6259152;28;20041;-80
2021/10/03 08:51:25;;;;;;;1.88;1.27;;;;;;;17.43;98.38;99696.19;6267379;28;20053;-80
2021/10/03 08:54:26;;;;;;;1.85;1.48;;;;;;;17.32;99.79;99701.75;6268495;28;20057;-80
2021/10/03 08:57:29;;;;;;;2.17;1.63;;;;;;;17.27;98.32;99707.50;6272047;28;20053;-79
2021/10/03 09:00:30;;;;;;;3.42;1.70;;;;;;;17.21;98.34;99716.91;6272092;28;20053;-80
2021/10/03 09:03:33;;;;;;;2.22;1.40;;;;;;;17.12;99.17;99720.47;6269920;28;20127;-79
2021/10/03 09:07:00;;;;;;;3.10;1.25;;;;;;;17.13;98.37;99727.44;6263718;28;20056;-80
2021/10/03 09:10:02;;;;;;;3.75;1.58;;;;;;;17.07;99.40;99729.84;6272244;28;20045;-81
2021/10/03 09:13:05;;;;;;;2.75;1.63;;;;;;;17.08;98.58;99727.03;6272124;28;20057;-81
2021/10/03 09:16:10;;;;;;;2.55;1.83;;;;;;;17.17;97.14;99728.81;6271928;28;20073;-79
2021/10/03 09:19:14;;;;;;;3.95;1.70;;;;;;;17.30;97.58;99733.72;6272000;28;20045;-80
2021/10/03 09:22:15;;;;;;;2.53;1.73;;;;;;;17.27;99.04;99744.69;6275898;28;20440;-80
2021/10/03 09:25:30;;;;;;;2.30;1.50;;;;;;;17.22;97.79;99731.03;6276542;28;20045;-80
2021/10/03 09:28:34;;;;;;;1.92;1.30;;;;;;;17.25;98.23;99734.19;6276573;28;20056;-81
2021/10/03 09:31:35;;;;;;;1.50;1.38;;;;;;;17.29;98.94;99720.63;6276392;28;20174;-80
2021/10/03 09:34:38;;;;;;;2.60;1.40;;;;;;;17.37;98.21;99716.22;6271659;28;20438;-81
2021/10/03 09:37:39;;;;;;;1.75;1.20;;;;;;;17.45;94.90;99729.59;6261874;28;20045;-81
2021/10/03 09:40:41;;;;;;;7.07;3.00;;;;;;;17.56;94.74;99733.00;6270365;28;20081;-80
2021/10/03 09:43:47;;;;;;;4.25;1.60;;;;;;;17.64;91.62;99728.59;6265644;28;20052;-81
2021/10/03 09:46:49;;;;;;;2.08;1.30;;;;;;;17.71;91.22;99726.16;6276666;28;20045;-81
2021/10/03 09:49:51;;;;;;;1.50;1.13;;;;;;;17.76;89.94;99726.59;6276008;28;20049;-81
2021/10/03 09:52:53;;;;;;;3.30;1.52;;;;;;;17.77;89.49;99722.13;6276104;28;20511;-81
2021/10/03 09:55:54;;;;;;;4.15;1.30;;;;;;;17.79;89.00;99718.28;6275608;28;20060;-80
2021/10/03 09:58:57;;;;;;;2.13;1.45;;;;;;;17.86;87.29;99737.97;6276155;28;20049;-79
2021/10/03 10:01:58;;;;;;;2.63;1.52;;;;;;;17.93;88.74;99725.72;6276044;28;20045;-80
2021/10/03 10:05:00;;;;;;;2.83;1.40;;;;;;;17.91;89.99;99729.53;6275912;28;20045;-81
2021/10/03 10:08:01;;;;;;;2.45;1.40;;;;;;;17.92;91.46;99732.03;6275609;28;20052;-80
2021/10/03 10:11:07;;;;;;;2.50;1.20;;;;;;;17.94;87.55;99735.38;6275586;28;20049;-80
2021/10/03 10:14:11;;;;;;;2.92;1.58;;;;;;;17.92;86.69;99728.53;6275886;28;20079;-80
2021/10/03 10:17:26;;;;;;;1.77;1.02;;;;;;;18.07;84.39;99740.28;6276244;28;20048;-81
2021/10/03 10:20:35;;;;;;;1.30;1.10;;;;;;;18.15;85.70;99739.50;6275756;28;20418;-81
2021/10/03 10:23:37;;;;;;;2.90;1.50;;;;;;;18.17;87.24;99740.22;6275567;28;20045;-81
2021/10/03 10:26:39;;;;;;;2.25;1.30;;;;;;;18.25;84.35;99743.75;6266413;28;20053;-80
2021/10/03 10:29:51;;;;;;;1.45;1.00;;;;;;;18.30;82.74;99750.41;6264854;28;20084;-79
2021/10/03 10:33:16;;;;;;;2.45;1.25;;;;;;;18.42;83.19;99747.34;6267050;28;20045;-80
2021/10/03 10:36:19;;;;;;;1.55;1.20;;;;;;;18.42;80.02;99754.50;6267089;28;20055;-81
2021/10/03 10:39:25;;;;;;;1.75;0.82;;;;;;;18.35;81.22;99745.47;6268678;28;20060;-80
2021/10/03 10:42:27;;;;;;;2.15;1.23;;;;;;;18.35;81.94;99753.44;6262252;28;20049;-81
2021/10/03 10:45:41;;;;;;;4.30;2.20;;;;;;;18.38;81.85;99747.81;6274475;28;20508;-81
2021/10/03 10:48:42;;;;;;;2.45;1.52;;;;;;;18.40;83.01;99744.03;6256065;28;20428;-79
2021/10/03 10:51:43;;;;;;;5.80;2.97;;;;;;;18.36;84.86;99739.19;6226342;28;20053;-82
2021/10/03 10:55:37;;;;;;;4.30;2.60;;;;;;;18.28;85.84;99739.13;6226194;28;20058;-82
2021/10/03 10:58:40;;;;;;;2.03;1.35;;;;;;;18.34;84.89;99736.66;6225680;28;20053;-81
2021/10/03 11:01:42;;;;;;;2.67;1.50;;;;;;;18.41;85.90;99734.22;6226023;28;20041;-82
2021/10/03 11:04:44;;;;;;;2.00;1.35;;;;;;;18.39;86.17;99731.69;6226226;28;20053;-82
2021/10/03 11:08:04;;;;;;;2.55;1.73;;;;;;;18.44;86.08;99741.84;6226072;28;20069;-83
2021/10/03 11:11:18;;;;;;;4.57;1.80;;;;;;;18.43;88.42;99737.53;6225833;28;20052;-81
2021/10/03 11:14:20;;;;;;;3.13;2.13;;;;;;;18.45;85.39;99740.88;6226412;28;20050;-81
2021/10/03 11:17:30;;;;;;;6.35;2.88;;;;;;;18.40;85.78;99732.56;6226178;28;20053;-81
2021/10/03 11:20:32;;;;;;;4.97;1.95;;;;;;;18.39;86.41;99739.66;6225713;28;20064;-81
2021/10/03 11:23:33;;;;;;;1.40;1.02;;;;;;;18.48;83.16;99732.56;6225396;28;20053;-81
2021/10/03 11:26:45;;;;;;;4.22;1.60;;;;;;;18.49;83.92;99745.75;6225020;28;20053;-81
2021/10/03 11:29:48;;;;;;;3.35;1.50;;;;;;;18.43;83.70;99732.22;6225312;28;20053;-81
2021/10/03 11:32:51;;;;;;;1.55;1.45;;;;;;;18.41;82.75;99737.72;6224897;28;20057;-81
2021/10/03 11:35:53;;;;;;;2.22;1.45;;;;;;;18.43;83.33;99732.22;6224183;28;20050;-81
2021/10/03 11:38:56;;;;;;;3.58;1.42;;;;;;;18.54;80.53;99723.97;6224467;28;20050;-81
2021/10/03 11:41:57;;;;;;;2.10;1.25;;;;;;;18.63;79.85;99717.72;6224685;28;20046;-81
2021/10/03 11:45:00;;;;;;;2.33;1.30;;;;;;;18.78;78.79;99711.81;6224166;28;20054;-82
2021/10/03 11:48:04;;;;;;;2.70;1.40;;;;;;;18.98;76.82;99715.88;6224044;28;20417;-81
2021/10/03 11:51:05;;;;;;;3.47;1.48;;;;;;;19.09;76.86;99722.75;6223962;28;20045;-81
2021/10/03 11:54:07;;;;;;;1.45;0.93;;;;;;;19.17;75.16;99704.97;6224077;28;20396;-80
2021/10/03 11:57:21;;;;;;;3.97;1.20;;;;;;;19.20;75.40;99709.13;6248547;28;20048;-82
2021/10/03 12:00:25;;;;;;;1.40;1.10;;;;;;;19.17;77.41;99706.81;6257575;28;20171;-81
2021/10/03 12:03:32;;;;;;;1.70;1.15;;;;;;;19.24;76.72;99699.81;6249295;28;20049;-81
2021/10/03 12:06:35;;;;;;;1.70;1.27;;;;;;;19.27;75.28;99695.00;6249043;28;20191;-82
2021/10/03 12:09:37;;;;;;;2.38;1.15;;;;;;;19.34;74.54;99697.81;6262477;28;20507;-82
2021/10/03 12:12:46;;;;;;;1.13;0.90;;;;;;;19.40;75.33;99699.84;6274628;28;20049;-81
2021/10/03 12:15:59;;;;;;;1.75;0.95;;;;;;;19.35;76.04;99691.53;6273962;28;20049;-80
2021/10/03 12:19:03;;;;;;;3.92;1.20;;;;;;;19.31;76.73;99692.00;6272531;28;20049;-81
2021/10/03 12:22:05;;;;;;;1.13;0.90;;;;;;;19.33;74.87;99696.16;6271911;28;20049;-80
2021/10/03 12:25:07;;;;;;;3.13;1.30;;;;;;;19.41;75.38;99692.69;6271726;28;20087;-82
2021/10/03 12:28:08;;;;;;;1.35;1.05;;;;;;;19.44;73.59;99684.34;6271648;28;20061;-81
2021/10/03 12:31:10;;;;;;;1.77;1.10;;;;;;;19.56;72.16;99691.03;6268849;28;20051;-81
2021/10/03 12:34:49;;;;;;;2.30;1.50;;;;;;;19.60;72.56;99687.06;6265122;28;20055;-81
2021/10/03 12:37:50;;;;;;;1.45;1.08;;;;;;;19.61;73.01;99686.06;6271781;28;20053;-81
2021/10/03 12:40:52;;;;;;;1.52;1.10;;;;;;;19.66;72.09;99688.22;6271337;28;20045;-81
2021/10/03 12:43:55;;;;;;;2.03;1.13;;;;;;;19.72;71.77;99695.56;6271480;28;20056;-81
2021/10/03 12:46:56;;;;;;;2.10;1.48;;;;;;;19.79;71.43;99688.56;6271620;28;20477;-81
2021/10/03 12:49:59;;;;;;;1.90;1.10;;;;;;;19.70;71.86;99689.56;6271212;28;20053;-80
2021/10/03 12:53:01;;;;;;;1.55;1.20;;;;;;;19.67;72.19;99690.75;6271205;28;20413;-80
2021/10/03 12:56:02;;;;;;;2.08;1.25;;;;;;;19.69;71.19;99686.06;6275150;28;20052;-80
2021/10/03 12:59:04;;;;;;;1.42;1.20;;;;;;;19.82;71.46;99692.75;6276254;28;20060;-81
2021/10/03 13:02:06;;;;;;;1.85;1.05;;;;;;;19.86;72.42;99694.06;6276588;28;20064;-81
2021/10/03 13:05:10;;;;;;;2.50;1.38;;;;;;;19.92;72.25;99686.22;6276190;28;20044;-80
2021/10/03 13:08:12;;;;;;;2.33;1.30;;;;;;;19.99;70.88;99689.91;6276154;28;20057;-80
2021/10/03 13:11:13;;;;;;;1.50;1.20;;;;;;;19.99;71.13;99684.56;6276287;28;20045;-81
2021/10/03 13:14:14;;;;;;;1.20;1.00;;;;;;;20.02;71.80;99700.19;6275726;28;20412;-82
2021/10/03 13:17:15;;;;;;;1.92;1.20;;;;;;;20.13;71.47;99698.22;6276176;28;20048;-81
2021/10/03 13:20:18;;;;;;;1.35;0.90;;;;;;;20.20;70.70;99693.84;6276674;28;20057;-82
2021/10/03 13:23:22;;;;;;;1.45;1.33;;;;;;;20.10;71.85;99690.53;6238139;28;20050;-81
2021/10/03 13:26:23;;;;;;;3.50;1.25;;;;;;;20.10;71.88;99687.88;6238627;28;20107;-80
2021/10/03 13:29:25;;;;;;;1.80;1.50;;;;;;;20.19;70.92;99686.84;6268323;28;20048;-81
2021/10/03 13:32:26;;;;;;;1.15;1.00;;;;;;;20.29;71.13;99695.50;6262089;28;20492;-81
2021/10/03 13:35:29;;;;;;;2.08;1.27;;;;;;;20.34;71.05;99703.00;6264102;28;20053;-81
2021/10/03 13:38:30;;;;;;;1.30;1.13;;;;;;;20.26;69.96;99693.19;6275648;28;20045;-81
2021/10/03 13:41:32;;;;;;;1.80;1.20;;;;;;;20.21;70.59;99708.84;6275839;28;20045;-80
2021/10/03 13:44:33;;;;;;;1.38;1.08;;;;;;;20.17;71.05;99704.88;6268289;28;20041;-81
2021/10/03 13:47:35;;;;;;;2.33;1.40;;;;;;;20.10;70.63;99709.22;6267368;28;20060;-80
2021/10/03 13:50:37;;;;;;;3.03;1.35;;;;;;;20.06;71.24;99703.38;6299133;22;20053;-80
2021/10/03 13:53:39;;;;;;;1.67;1.00;;;;;;;20.00;70.72;99710.22;6282728;28;20036;-80
2021/10/03 13:56:40;;;;;;;2.67;1.20;;;;;;;19.97;71.08;99709.72;6294005;28;20055;-79
2021/10/03 13:59:42;;;;;;;3.85;1.63;;;;;;;19.98;71.36;99716.72;6301828;28;20059;-78
2021/10/03 14:02:46;;;;;;;2.08;1.45;;;;;;;19.96;71.38;99708.88;6299631;28;20045;-80
2021/10/03 14:05:49;;;;;;;1.20;1.10;;;;;;;19.87;70.36;99715.22;6302112;28;20055;-80
2021/10/03 14:08:50;;;;;;;3.00;1.30;;;;;;;19.92;69.95;99722.72;6302106;28;20059;-80
2021/10/03 14:11:52;;;;;;;2.05;1.15;;;;;;;19.94;68.69;99718.91;6302348;28;20415;-80
2021/10/03 14:14:53;;;;;;;1.70;1.20;;;;;;;19.88;69.89;99726.72;6302451;28;20059;-80
2021/10/03 14:17:55;;;;;;;1.70;0.90;;;;;;;19.90;69.25;99720.25;6289880;28;20045;-80
2021/10/03 14:20:57;;;;;;;2.25;1.50;;;;;;;19.91;67.71;99729.06;6255259;28;20045;-80